KFST/FST METAR and TAF weather

Enter ICAO airport designator
Station Type Date Time Source
KFST METAR 2024/03/05 16:53 UTC NOAA

KFST 051653Z AUTO 29020G27KT 10SM CLR 23/M02 A3000 RMK AO2 PK WND 31029/1643 SLP123 T02281022 $


Station Type Date Time Source
KFST Decoded METAR 2024/03/05 16:53 UTC NOAA

FORT STOCKTON PECOS CO AIRPORT , TX, United States (KFST) 30-55N 102-55W 918M
Mar 05, 2024 - 11:53 AM EST / 2024.03.05 1653 UTC
Wind: from the WNW (290 degrees) at 23 MPH (20 KT) gusting to 31 MPH (27 KT):0
Visibility: 10 mile(s):0
Sky conditions: clear
Temperature: 73.0 F (22.8 C)
Dew Point: 28.0 F (-2.2 C)
Relative Humidity: 18%
Pressure (altimeter): 30 in. Hg (1015 hPa)
ob: KFST 051653Z AUTO 29020G27KT 10SM CLR 23/M02 A3000 RMK AO2 PK WND 31029/1643 SLP123 T02281022
cycle: 17

Station Type Date Time Source
KFST TAF 2024/04/18 06:22 UTC NOAA